createdAt,value
2023-08-01T00:00:40.147Z,2.33
2023-08-01T00:03:44.241Z,2.28
2023-08-01T00:06:47.217Z,2.28
2023-08-01T00:09:50.212Z,2.72
2023-08-01T00:12:53.209Z,2.40
2023-08-01T00:16:06.902Z,2.57
2023-08-01T00:19:11.680Z,2.13
2023-08-01T00:22:15.496Z,2.63
2023-08-01T00:25:20.130Z,2.50
2023-08-01T00:28:24.561Z,2.63
2023-08-01T00:31:27.977Z,2.80
2023-08-01T00:34:33.186Z,3.13
2023-08-01T00:37:36.326Z,2.55
2023-08-01T00:40:39.589Z,2.75
2023-08-01T00:43:43.082Z,2.70
2023-08-01T00:46:47.200Z,2.40
2023-08-01T00:49:50.684Z,2.53
2023-08-01T00:52:53.686Z,2.85
2023-08-01T00:55:56.679Z,2.65
2023-08-01T00:58:59.647Z,2.43
2023-08-01T01:02:03.261Z,2.80
2023-08-01T01:05:06.640Z,2.85
2023-08-01T01:08:09.285Z,2.90
2023-08-01T01:11:12.257Z,2.63
2023-08-01T01:14:15.027Z,2.87
2023-08-01T01:17:18.340Z,2.80
2023-08-01T01:20:24.219Z,2.90
2023-08-01T01:23:27.453Z,3.05
2023-08-01T01:26:30.607Z,2.83
2023-08-01T01:29:34.409Z,3.40
2023-08-01T01:32:36.708Z,3.33
2023-08-01T01:35:39.178Z,3.22
2023-08-01T01:38:41.478Z,2.65
2023-08-01T01:41:43.752Z,2.97
2023-08-01T01:44:45.996Z,2.90
2023-08-01T01:47:48.273Z,2.53
2023-08-01T01:50:50.582Z,2.53
2023-08-01T01:53:52.916Z,2.55
2023-08-01T01:56:55.145Z,2.78
2023-08-01T01:59:57.454Z,2.80
2023-08-01T02:02:59.755Z,2.60
2023-08-01T02:06:02.013Z,3.10
2023-08-01T02:09:05.611Z,2.90
2023-08-01T02:12:11.042Z,2.70
2023-08-01T02:15:13.377Z,2.47
2023-08-01T02:18:15.818Z,2.80
2023-08-01T02:21:19.005Z,2.75
2023-08-01T02:24:21.230Z,2.60
2023-08-01T02:27:23.492Z,2.53
2023-08-01T02:30:25.763Z,2.67
2023-08-01T02:33:28.759Z,2.73
2023-08-01T02:36:31.871Z,3.40
2023-08-01T02:39:35.163Z,3.17
2023-08-01T02:42:38.156Z,3.63
2023-08-01T02:45:43.500Z,3.63
2023-08-01T02:48:46.496Z,3.33
2023-08-01T02:51:49.385Z,3.15
2023-08-01T02:54:52.581Z,3.00
2023-08-01T02:57:55.878Z,2.67
2023-08-01T03:00:58.967Z,3.00
2023-08-01T03:04:02.164Z,3.00
2023-08-01T03:07:06.385Z,2.67
2023-08-01T03:10:12.118Z,3.13
2023-08-01T03:13:16.707Z,2.63
2023-08-01T03:16:19.277Z,3.13
2023-08-01T03:19:21.548Z,3.00
2023-08-01T03:22:23.843Z,2.80
2023-08-01T03:25:26.124Z,3.05
2023-08-01T03:28:28.779Z,3.17
2023-08-01T03:31:31.113Z,2.90
2023-08-01T03:34:33.449Z,3.40
2023-08-01T03:37:35.717Z,3.22
2023-08-01T03:40:38.034Z,3.47
2023-08-01T03:43:40.347Z,3.08
2023-08-01T03:46:42.782Z,3.30
2023-08-01T03:49:45.324Z,3.30
2023-08-01T03:52:47.603Z,2.80
2023-08-01T03:55:50.059Z,3.28
2023-08-01T03:58:52.320Z,2.92
2023-08-01T04:01:54.568Z,3.30
2023-08-01T04:04:57.980Z,3.50
2023-08-01T04:08:00.533Z,3.28
2023-08-01T04:11:02.781Z,3.25
2023-08-01T04:14:05.051Z,3.78
2023-08-01T04:17:07.317Z,3.40
2023-08-01T04:20:09.879Z,4.07
2023-08-01T04:23:12.322Z,3.33
2023-08-01T04:26:14.547Z,3.47
2023-08-01T04:29:19.468Z,3.38
2023-08-01T04:32:21.921Z,3.47
2023-08-01T04:35:24.294Z,3.53
2023-08-01T04:38:29.278Z,3.40
2023-08-01T04:41:31.499Z,3.95
2023-08-01T04:44:34.400Z,3.65
2023-08-01T04:47:36.929Z,3.50
2023-08-01T04:50:39.206Z,3.67
2023-08-01T04:53:41.523Z,3.75
2023-08-01T04:56:43.967Z,3.70
2023-08-01T04:59:46.185Z,3.88
2023-08-01T05:02:48.724Z,3.87
2023-08-01T05:05:51.082Z,3.70
2023-08-01T05:08:53.350Z,3.28
2023-08-01T05:11:55.579Z,3.50
2023-08-01T05:14:57.930Z,3.33
2023-08-01T05:18:00.305Z,3.50
2023-08-01T05:21:02.588Z,2.93
2023-08-01T05:24:05.590Z,2.97
2023-08-01T05:27:08.584Z,2.90
2023-08-01T05:30:12.201Z,2.70
2023-08-01T05:33:15.382Z,2.53
2023-08-01T05:36:18.580Z,2.33
2023-08-01T05:39:21.565Z,2.90
2023-08-01T05:42:24.769Z,2.63
2023-08-01T05:45:28.157Z,2.83
2023-08-01T05:48:31.570Z,2.80
2023-08-01T05:51:34.657Z,2.80
2023-08-01T05:54:37.754Z,2.80
2023-08-01T05:57:40.847Z,2.95
2023-08-01T06:00:44.042Z,3.10
2023-08-01T06:03:46.709Z,2.90
2023-08-01T06:06:49.055Z,3.00
2023-08-01T06:09:52.785Z,2.63
2023-08-01T06:12:55.372Z,2.85
2023-08-01T06:15:57.701Z,4.00
2023-08-01T06:19:00.117Z,3.10
2023-08-01T06:22:03.006Z,3.00
2023-08-01T06:25:06.506Z,3.60
2023-08-01T06:28:09.628Z,5.03
2023-08-01T06:31:12.889Z,3.30
2023-08-01T06:34:16.205Z,3.30
2023-08-01T06:37:18.773Z,3.07
2023-08-01T06:40:21.246Z,3.35
2023-08-01T06:43:25.734Z,3.50
2023-08-01T06:46:29.017Z,3.22
2023-08-01T06:49:32.065Z,3.10
2023-08-01T06:52:35.278Z,3.17
2023-08-01T06:55:38.573Z,3.45
2023-08-01T06:58:41.761Z,2.92
2023-08-01T07:01:45.435Z,3.17
2023-08-01T07:04:48.554Z,3.30
2023-08-01T07:07:51.762Z,3.28
2023-08-01T07:10:54.267Z,3.60
2023-08-01T07:13:56.571Z,3.35
2023-08-01T07:16:58.952Z,3.67
2023-08-01T07:20:01.193Z,3.40
2023-08-01T07:23:04.239Z,3.30
2023-08-01T07:26:07.743Z,3.58
2023-08-01T07:29:12.266Z,3.25
2023-08-01T07:32:16.313Z,3.20
2023-08-01T07:35:19.474Z,3.23
2023-08-01T07:38:22.072Z,3.50
2023-08-01T07:41:24.363Z,3.35
2023-08-01T07:44:26.771Z,3.55
2023-08-01T07:47:29.025Z,3.30
2023-08-01T07:50:31.684Z,3.13
2023-08-01T07:53:34.025Z,3.05
2023-08-01T07:56:36.313Z,2.90
2023-08-01T07:59:38.599Z,3.20
2023-08-01T08:02:43.247Z,2.87
2023-08-01T08:05:45.976Z,2.73
2023-08-01T08:08:48.342Z,2.63
2023-08-01T08:11:52.086Z,2.70
2023-08-01T08:14:54.345Z,2.40
2023-08-01T08:17:56.801Z,2.00
2023-08-01T08:20:59.197Z,2.57
2023-08-01T08:24:01.604Z,2.80
2023-08-01T08:27:04.366Z,2.30
2023-08-01T08:30:07.430Z,2.25
2023-08-01T08:33:13.148Z,2.47
2023-08-01T08:36:16.130Z,2.40
2023-08-01T08:39:19.669Z,2.50
2023-08-01T08:42:22.377Z,2.42
2023-08-01T08:45:25.017Z,2.70
2023-08-01T08:48:28.145Z,2.70
2023-08-01T08:51:30.480Z,2.33
2023-08-01T08:54:32.916Z,2.50
2023-08-01T08:57:35.380Z,2.40
2023-08-01T09:00:38.773Z,2.45
2023-08-01T09:03:41.530Z,2.40
2023-08-01T09:06:51.898Z,2.40
2023-08-01T09:09:54.707Z,2.50
2023-08-01T09:12:57.522Z,2.50
2023-08-01T09:16:00.527Z,2.50
2023-08-01T09:19:03.697Z,2.47
2023-08-01T09:22:15.330Z,2.30
2023-08-01T09:25:17.812Z,2.22
2023-08-01T09:28:24.438Z,2.35
2023-08-01T09:31:32.076Z,2.50
2023-08-01T09:34:34.683Z,2.53
2023-08-01T09:37:43.848Z,2.40
2023-08-01T09:40:46.981Z,2.30
2023-08-01T09:43:51.083Z,2.22
2023-08-01T09:47:04.191Z,2.20
2023-08-01T09:50:06.981Z,2.73
2023-08-01T09:53:10.012Z,2.13
2023-08-01T09:56:12.954Z,2.28
2023-08-01T09:59:23.220Z,2.60
2023-08-01T10:02:27.750Z,2.60
2023-08-01T10:05:31.866Z,2.53
2023-08-01T10:08:34.784Z,2.50
2023-08-01T10:11:39.609Z,2.40
2023-08-01T10:14:42.677Z,1.90
2023-08-01T10:17:45.676Z,2.10
2023-08-01T10:20:48.872Z,2.23
2023-08-01T10:23:51.378Z,2.10
2023-08-01T10:26:53.869Z,2.30
2023-08-01T10:30:00.909Z,2.40
2023-08-01T10:33:03.484Z,2.30
2023-08-01T10:36:16.261Z,2.07
2023-08-01T10:39:24.026Z,2.10
2023-08-01T10:42:26.879Z,2.40
2023-08-01T10:45:30.998Z,2.60
2023-08-01T10:48:33.452Z,2.35
2023-08-01T10:51:36.763Z,2.17
2023-08-01T10:54:41.043Z,2.40
2023-08-01T10:57:50.779Z,2.13
2023-08-01T11:00:59.410Z,2.30
2023-08-01T11:04:01.923Z,2.33
2023-08-01T11:07:05.919Z,1.97
2023-08-01T11:10:13.179Z,2.60
2023-08-01T11:13:15.462Z,2.30
2023-08-01T11:16:18.089Z,2.30
2023-08-01T11:19:23.567Z,2.38
2023-08-01T11:22:25.884Z,2.60
2023-08-01T11:25:40.841Z,3.00
2023-08-01T11:28:44.915Z,2.00
2023-08-01T11:31:59.133Z,1.88
2023-08-01T11:35:01.590Z,1.85
2023-08-01T11:38:04.163Z,1.87
2023-08-01T11:41:06.749Z,3.50
2023-08-01T11:44:10.394Z,2.00
2023-08-01T11:47:16.994Z,2.28
2023-08-01T11:50:24.429Z,2.20
2023-08-01T11:53:27.334Z,3.63
2023-08-01T11:56:30.453Z,2.10
2023-08-01T11:59:32.875Z,2.15
2023-08-01T12:02:35.340Z,1.90
2023-08-01T12:05:37.784Z,1.90
2023-08-01T12:08:43.415Z,1.70
2023-08-01T12:11:45.841Z,1.60
2023-08-01T12:14:48.227Z,1.60
2023-08-01T12:17:50.746Z,1.63
2023-08-01T12:20:54.086Z,1.77
2023-08-01T12:23:59.574Z,2.27
2023-08-01T12:27:01.913Z,2.90
2023-08-01T12:30:04.626Z,1.90
2023-08-01T12:33:06.933Z,2.42
2023-08-01T12:36:09.320Z,1.90
2023-08-01T12:39:12.884Z,1.93
2023-08-01T12:42:15.337Z,1.80
2023-08-01T12:45:17.709Z,1.70
2023-08-01T12:48:20.392Z,1.70
2023-08-01T12:51:25.111Z,2.38
2023-08-01T12:54:27.435Z,1.97
2023-08-01T12:57:31.308Z,2.10
2023-08-01T13:00:33.768Z,2.47
2023-08-01T13:03:36.138Z,1.75
2023-08-01T13:06:38.883Z,2.05
2023-08-01T13:09:41.616Z,2.30
2023-08-01T13:12:44.562Z,2.40
2023-08-01T13:15:47.101Z,2.22
2023-08-01T13:18:50.520Z,2.45
2023-08-01T13:21:53.118Z,3.60
2023-08-01T13:24:55.441Z,3.37
2023-08-01T13:27:58.137Z,2.50
2023-08-01T13:31:00.724Z,3.33
2023-08-01T13:34:03.098Z,2.40
2023-08-01T13:37:05.626Z,1.80
2023-08-01T13:40:08.917Z,2.90
2023-08-01T13:43:11.237Z,1.80
2023-08-01T13:46:28.031Z,3.20
2023-08-01T13:49:32.089Z,2.40
2023-08-01T13:52:34.480Z,2.33
2023-08-01T13:55:36.836Z,3.80
2023-08-01T13:58:42.779Z,2.07
2023-08-01T14:01:45.240Z,2.00
2023-08-01T14:04:47.664Z,2.03
2023-08-01T14:07:50.082Z,2.05
2023-08-01T14:10:52.409Z,1.67
2023-08-01T14:13:54.882Z,2.50
2023-08-01T14:16:59.988Z,2.00
2023-08-01T14:20:05.182Z,2.90
2023-08-01T14:23:07.548Z,3.28
2023-08-01T14:26:09.976Z,1.90
2023-08-01T14:29:12.276Z,1.90
2023-08-01T14:32:15.150Z,2.60
2023-08-01T14:35:17.479Z,2.70
2023-08-01T14:38:19.836Z,2.00
2023-08-01T14:41:39.826Z,2.70
2023-08-01T14:44:44.555Z,1.83
2023-08-01T14:47:47.372Z,2.00
2023-08-01T14:50:50.004Z,2.30
2023-08-01T14:53:52.295Z,1.52
2023-08-01T14:56:54.739Z,1.50
2023-08-01T14:59:57.315Z,1.70
2023-08-01T15:02:59.762Z,2.38
2023-08-01T15:06:09.235Z,1.73
2023-08-01T15:09:11.608Z,1.85
2023-08-01T15:12:15.040Z,1.57
2023-08-01T15:15:17.516Z,1.70
2023-08-01T15:18:21.245Z,2.00
2023-08-01T15:21:26.576Z,1.98
2023-08-01T15:24:31.190Z,2.10
2023-08-01T15:27:33.645Z,1.40
2023-08-01T15:30:36.350Z,2.10
2023-08-01T15:33:39.693Z,2.40
2023-08-01T15:36:42.283Z,2.20
2023-08-01T15:39:45.111Z,1.90
2023-08-01T15:42:47.478Z,1.93
2023-08-01T15:45:50.379Z,1.90
2023-08-01T15:48:55.604Z,1.80
2023-08-01T15:51:58.211Z,2.10
2023-08-01T15:55:00.596Z,1.98
2023-08-01T15:58:03.334Z,2.00
2023-08-01T16:01:07.991Z,2.17
2023-08-01T16:04:10.711Z,2.00
2023-08-01T16:07:13.311Z,1.85
2023-08-01T16:10:15.804Z,1.88
2023-08-01T16:13:19.954Z,2.10
2023-08-01T16:16:23.178Z,2.50
2023-08-01T16:19:25.991Z,1.98
2023-08-01T16:22:29.004Z,1.90
2023-08-01T16:25:32.064Z,1.60
2023-08-01T16:28:34.714Z,1.27
2023-08-01T16:31:37.878Z,1.40
2023-08-01T16:34:40.551Z,1.02
2023-08-01T16:37:43.447Z,0.90
2023-08-01T16:40:46.456Z,0.77
2023-08-01T16:43:50.351Z,0.93
2023-08-01T16:46:53.045Z,0.53
2023-08-01T16:49:56.206Z,0.88
2023-08-01T16:52:59.008Z,0.50
2023-08-01T16:56:01.820Z,0.70
2023-08-01T16:59:04.901Z,0.60
2023-08-01T17:02:09.935Z,0.70
2023-08-01T17:05:14.997Z,0.77
2023-08-01T17:08:17.359Z,0.60
2023-08-01T17:11:19.886Z,0.80
2023-08-01T17:14:24.254Z,0.80
2023-08-01T17:17:27.052Z,0.90
2023-08-01T17:20:36.383Z,0.75
2023-08-01T17:23:39.160Z,0.80
2023-08-01T17:26:42.865Z,0.45
2023-08-01T17:29:46.264Z,0.57
2023-08-01T17:32:50.686Z,0.60
2023-08-01T17:35:53.174Z,0.50
2023-08-01T17:38:55.908Z,0.85
2023-08-01T17:41:58.833Z,0.52
2023-08-01T17:45:01.605Z,0.40
2023-08-01T17:48:04.146Z,0.57
2023-08-01T17:51:08.346Z,0.52
2023-08-01T17:54:11.293Z,0.70
2023-08-01T17:57:14.529Z,0.68
2023-08-01T18:00:19.292Z,0.50
2023-08-01T18:03:21.858Z,0.50
2023-08-01T18:06:24.654Z,0.40
2023-08-01T18:09:27.676Z,0.50
2023-08-01T18:12:30.904Z,0.52
2023-08-01T18:15:39.296Z,0.50
2023-08-01T18:18:42.485Z,0.43
2023-08-01T18:21:45.575Z,0.50
2023-08-01T18:24:47.879Z,0.40
2023-08-01T18:27:50.675Z,0.25
2023-08-01T18:30:53.733Z,0.50
2023-08-01T18:33:56.601Z,0.53
2023-08-01T18:36:58.927Z,0.50
2023-08-01T18:40:01.802Z,0.73
2023-08-01T18:43:05.248Z,0.70
2023-08-01T18:46:08.378Z,0.70
2023-08-01T18:49:12.916Z,0.63
2023-08-01T18:52:15.770Z,0.88
2023-08-01T18:55:19.738Z,0.90
2023-08-01T18:58:22.385Z,0.90
2023-08-01T19:01:26.999Z,1.37
2023-08-01T19:04:31.302Z,0.70
2023-08-01T19:07:33.841Z,1.13
2023-08-01T19:10:36.718Z,1.10
2023-08-01T19:13:40.203Z,1.00
2023-08-01T19:16:44.993Z,0.87
2023-08-01T19:19:48.733Z,0.93
2023-08-01T19:22:53.673Z,0.90
2023-08-01T19:25:57.159Z,0.88
2023-08-01T19:29:01.177Z,0.90
2023-08-01T19:32:06.784Z,0.90
2023-08-01T19:35:10.431Z,1.00
2023-08-01T19:38:13.962Z,0.90
2023-08-01T19:41:17.258Z,1.10
2023-08-01T19:44:23.102Z,0.93
2023-08-01T19:47:26.949Z,0.97
2023-08-01T19:50:31.831Z,0.90
2023-08-01T19:53:35.171Z,1.13
2023-08-01T19:56:38.171Z,1.00
2023-08-01T19:59:41.111Z,0.98
2023-08-01T20:02:46.696Z,0.90
2023-08-01T20:05:49.817Z,0.90
2023-08-01T20:08:52.936Z,1.10
2023-08-01T20:11:56.286Z,0.90
2023-08-01T20:14:59.203Z,1.00
2023-08-01T20:18:02.052Z,1.43
2023-08-01T20:21:06.150Z,1.27
2023-08-01T20:24:09.312Z,0.90
2023-08-01T20:27:12.243Z,1.00
2023-08-01T20:30:14.523Z,1.08
2023-08-01T20:33:18.852Z,1.20
2023-08-01T20:36:21.280Z,1.13
2023-08-01T20:39:26.087Z,1.30
2023-08-01T20:42:29.389Z,1.38
2023-08-01T20:45:32.353Z,0.90
2023-08-01T20:48:35.660Z,1.20
2023-08-01T20:51:38.839Z,1.27
2023-08-01T20:54:41.282Z,1.10
2023-08-01T20:57:44.151Z,1.60
2023-08-01T21:00:47.208Z,1.20
2023-08-01T21:03:49.503Z,1.07
2023-08-01T21:06:53.189Z,1.43
2023-08-01T21:09:55.421Z,1.15
2023-08-01T21:12:57.668Z,1.20
2023-08-01T21:15:59.992Z,1.30
2023-08-01T21:19:02.296Z,1.20
2023-08-01T21:22:04.851Z,1.20
2023-08-01T21:25:07.646Z,1.10
2023-08-01T21:28:10.097Z,1.45
2023-08-01T21:31:13.810Z,0.95
2023-08-01T21:34:16.278Z,1.23
2023-08-01T21:37:19.541Z,1.23
2023-08-01T21:40:22.752Z,0.85
2023-08-01T21:43:25.943Z,1.13
2023-08-01T21:46:30.279Z,0.80
2023-08-01T21:49:33.450Z,1.30
2023-08-01T21:52:36.757Z,1.80
2023-08-01T21:55:39.844Z,1.50
2023-08-01T21:58:43.969Z,1.88
2023-08-01T22:01:46.955Z,1.38
2023-08-01T22:04:51.379Z,1.33
2023-08-01T22:07:54.476Z,1.90
2023-08-01T22:10:59.101Z,1.55
2023-08-01T22:14:02.405Z,1.55
2023-08-01T22:17:05.702Z,1.48
2023-08-01T22:20:11.595Z,2.10
2023-08-01T22:23:14.651Z,1.80
2023-08-01T22:26:17.752Z,1.83
2023-08-01T22:29:20.842Z,1.77
2023-08-01T22:32:25.027Z,2.03
2023-08-01T22:35:29.492Z,1.50
2023-08-01T22:38:32.686Z,1.97
2023-08-01T22:41:35.019Z,1.63
2023-08-01T22:44:37.559Z,1.80
2023-08-01T22:47:40.862Z,1.80
2023-08-01T22:50:43.103Z,1.20
2023-08-01T22:53:54.143Z,1.60
2023-08-01T22:56:56.451Z,1.63
2023-08-01T22:59:58.748Z,1.70
2023-08-01T23:03:01.140Z,1.60
2023-08-01T23:06:04.437Z,1.70
2023-08-01T23:09:06.794Z,1.73
2023-08-01T23:12:09.231Z,1.50
2023-08-01T23:15:12.205Z,1.58
2023-08-01T23:18:15.532Z,1.50
2023-08-01T23:21:18.700Z,1.50
2023-08-01T23:24:21.696Z,1.90
2023-08-01T23:27:24.895Z,1.50
2023-08-01T23:30:28.184Z,1.75
2023-08-01T23:33:31.286Z,1.70
2023-08-01T23:36:34.372Z,1.80
2023-08-01T23:39:37.479Z,1.73
2023-08-01T23:42:40.664Z,1.50
2023-08-01T23:45:47.754Z,1.80
2023-08-01T23:48:51.254Z,1.92
2023-08-01T23:51:54.366Z,1.70
2023-08-01T23:54:57.441Z,1.30
2023-08-01T23:58:00.439Z,1.70
